Terminal Aerodrome Forecast
Issued by NWS Midland/Odessa, TX

Home | Current Version | Previous Version | Text Only | Print | Product List | Glossary On
Versions: 1 2 3 4 5 6 7 8 9 10 11 12 13 14 15
543
FTUS44 KMAF 141120
TAFMAF
TAF
KMAF 141120Z 1412/1512 22010KT P6SM FEW250
     FM141700 01012KT P6SM SKC
     FM150000 VRB06KT P6SM SKC=

USA.gov is the U.S. government's official web portal to all federal, state and local government web resources and services.